createdAt,value
2022-09-01T00:00:02.110Z,99.90
2022-09-01T00:02:30.747Z,99.90
2022-09-01T00:04:59.579Z,99.90
2022-09-01T00:07:30.164Z,99.90
2022-09-01T00:09:58.379Z,99.90
2022-09-01T00:12:28.826Z,99.90
2022-09-01T00:14:56.876Z,99.90
2022-09-01T00:17:25.127Z,99.90
2022-09-01T00:19:53.368Z,99.90
2022-09-01T00:22:21.372Z,99.90
2022-09-01T00:24:49.731Z,99.90
2022-09-01T00:27:17.917Z,99.90
2022-09-01T00:29:48.314Z,99.90
2022-09-01T00:32:16.369Z,99.90
2022-09-01T00:34:44.357Z,99.90
2022-09-01T00:37:12.599Z,99.90
2022-09-01T00:39:40.575Z,99.90
2022-09-01T00:42:08.688Z,99.90
2022-09-01T00:44:38.505Z,99.90
2022-09-01T00:47:08.770Z,99.90
2022-09-01T00:49:40.776Z,99.90
2022-09-01T00:52:12.065Z,99.90
2022-09-01T00:54:45.847Z,99.90
2022-09-01T00:57:14.161Z,99.90
2022-09-01T00:59:51.175Z,99.90
2022-09-01T01:02:20.754Z,99.90
2022-09-01T01:04:48.751Z,99.90
2022-09-01T01:07:17.756Z,99.90
2022-09-01T01:09:47.034Z,99.90
2022-09-01T01:12:18.622Z,99.90
2022-09-01T01:14:50.204Z,99.90
2022-09-01T01:17:21.261Z,99.90
2022-09-01T01:20:10.668Z,99.90
2022-09-01T01:23:05.624Z,99.90
2022-09-01T01:25:38.410Z,99.90
2022-09-01T01:28:14.177Z,99.90
2022-09-01T01:30:45.621Z,99.90
2022-09-01T01:33:13.651Z,99.90
2022-09-01T01:35:42.422Z,99.90
2022-09-01T01:38:11.241Z,99.90
2022-09-01T01:40:41.579Z,99.90
2022-09-01T01:43:11.585Z,99.90
2022-09-01T01:45:39.609Z,99.90
2022-09-01T01:48:08.704Z,99.90
2022-09-01T01:50:38.031Z,99.90
2022-09-01T01:53:10.832Z,99.90
2022-09-01T01:55:41.786Z,99.90
2022-09-01T01:58:12.230Z,99.90
2022-09-01T02:00:42.931Z,99.90
2022-09-01T02:03:12.840Z,99.90
2022-09-01T02:05:41.423Z,99.90
2022-09-01T02:08:11.475Z,99.90
2022-09-01T02:10:44.625Z,99.90
2022-09-01T02:13:16.821Z,99.90
2022-09-01T02:15:48.093Z,99.90
2022-09-01T02:18:19.638Z,99.90
2022-09-01T02:20:50.674Z,99.90
2022-09-01T02:23:23.515Z,99.90
2022-09-01T02:26:15.249Z,99.90
2022-09-01T02:28:43.361Z,99.90
2022-09-01T02:31:12.857Z,99.90
2022-09-01T02:33:45.615Z,99.90
2022-09-01T02:36:17.356Z,99.90
2022-09-01T02:38:53.800Z,99.90
2022-09-01T02:41:30.112Z,99.90
2022-09-01T02:44:02.265Z,99.90
2022-09-01T02:46:30.750Z,99.90
2022-09-01T02:49:00.679Z,99.90
2022-09-01T02:51:28.946Z,99.90
2022-09-01T02:53:57.198Z,99.90
2022-09-01T02:56:27.503Z,99.90
2022-09-01T02:58:56.132Z,99.90
2022-09-01T03:01:26.499Z,99.90
2022-09-01T03:03:57.137Z,99.90
2022-09-01T03:06:26.572Z,99.90
2022-09-01T03:08:59.777Z,99.90
2022-09-01T03:11:31.615Z,99.90
2022-09-01T03:14:00.025Z,99.90
2022-09-01T03:16:30.430Z,99.90
2022-09-01T03:18:58.916Z,99.90
2022-09-01T03:21:27.537Z,99.90
2022-09-01T03:23:55.743Z,99.90
2022-09-01T03:26:24.153Z,99.90
2022-09-01T03:28:53.809Z,99.90
2022-09-01T03:31:22.514Z,99.90
2022-09-01T03:33:51.057Z,99.90
2022-09-01T03:36:20.192Z,99.90
2022-09-01T03:38:49.689Z,99.90
2022-09-01T03:41:19.704Z,99.90
2022-09-01T03:43:48.597Z,99.90
2022-09-01T03:46:21.745Z,99.90
2022-09-01T03:48:51.769Z,99.90
2022-09-01T03:51:22.884Z,99.90
2022-09-01T03:53:54.478Z,99.90
2022-09-01T03:56:24.723Z,99.90
2022-09-01T03:58:53.461Z,99.90
2022-09-01T04:01:23.478Z,99.90
2022-09-01T04:03:52.984Z,99.90
2022-09-01T04:06:24.252Z,99.90
2022-09-01T04:08:56.908Z,99.90
2022-09-01T04:11:25.313Z,99.90
2022-09-01T04:13:53.804Z,99.90
2022-09-01T04:16:43.485Z,99.90
2022-09-01T04:19:20.126Z,99.90
2022-09-01T04:21:50.285Z,99.90
2022-09-01T04:24:19.346Z,99.90
2022-09-01T04:26:49.713Z,99.90
2022-09-01T04:29:18.812Z,99.90
2022-09-01T04:31:53.669Z,99.90
2022-09-01T04:34:22.571Z,99.90
2022-09-01T04:36:54.316Z,99.90
2022-09-01T04:39:23.539Z,99.90
2022-09-01T04:41:51.567Z,99.90
2022-09-01T04:44:20.191Z,99.90
2022-09-01T04:46:50.809Z,99.90
2022-09-01T04:49:22.339Z,99.90
2022-09-01T04:51:54.178Z,99.90
2022-09-01T04:54:23.795Z,99.90
2022-09-01T04:56:54.998Z,99.90
2022-09-01T04:59:27.189Z,99.90
2022-09-01T05:01:57.564Z,99.90
2022-09-01T05:04:28.798Z,99.90
2022-09-01T05:06:59.792Z,99.90
2022-09-01T05:09:29.653Z,99.90
2022-09-01T05:12:11.016Z,99.90
2022-09-01T05:14:42.508Z,99.90
2022-09-01T05:17:13.414Z,99.90
2022-09-01T05:19:45.086Z,99.90
2022-09-01T05:22:13.243Z,99.90
2022-09-01T05:24:42.314Z,99.90
2022-09-01T05:27:12.357Z,99.90
2022-09-01T05:29:41.773Z,99.90
2022-09-01T05:32:12.629Z,99.90
2022-09-01T05:34:45.227Z,99.90
2022-09-01T05:37:16.224Z,99.90
2022-09-01T05:39:44.267Z,99.90
2022-09-01T05:42:12.536Z,99.90
2022-09-01T05:44:44.080Z,99.90
2022-09-01T05:47:20.328Z,99.90
2022-09-01T05:49:50.510Z,99.90
2022-09-01T05:52:25.030Z,99.90
2022-09-01T05:54:55.568Z,99.90
2022-09-01T05:57:34.411Z,99.90
2022-09-01T06:00:10.944Z,99.90
2022-09-01T06:02:41.189Z,99.90
2022-09-01T06:05:10.961Z,99.90
2022-09-01T06:07:42.235Z,99.90
2022-09-01T06:10:11.092Z,99.90
2022-09-01T06:12:40.722Z,99.90
2022-09-01T06:15:15.900Z,99.90
2022-09-01T06:17:46.364Z,99.90
2022-09-01T06:20:14.688Z,99.90
2022-09-01T06:22:43.853Z,99.90
2022-09-01T06:25:12.009Z,99.90
2022-09-01T06:27:41.232Z,99.90
2022-09-01T06:30:14.998Z,99.90
2022-09-01T06:32:44.830Z,99.90
2022-09-01T06:35:15.826Z,99.90
2022-09-01T06:37:45.927Z,99.90
2022-09-01T06:40:18.190Z,99.90
2022-09-01T06:42:47.383Z,99.90
2022-09-01T06:45:16.459Z,99.90
2022-09-01T06:47:45.760Z,99.90
2022-09-01T06:51:14.509Z,99.90
2022-09-01T06:55:56.934Z,99.90
2022-09-01T06:58:25.340Z,99.90
2022-09-01T07:00:53.805Z,99.60
2022-09-01T07:03:22.651Z,99.90
2022-09-01T07:06:09.552Z,99.60
2022-09-01T07:09:19.857Z,98.00
2022-09-01T07:14:17.419Z,97.00
2022-09-01T07:16:51.733Z,95.60
2022-09-01T07:19:21.155Z,94.30
2022-09-01T07:24:40.157Z,91.80
2022-09-01T07:27:09.558Z,91.50
2022-09-01T07:29:39.347Z,91.00
2022-09-01T07:35:00.205Z,90.50
2022-09-01T07:43:19.021Z,88.60
2022-09-01T07:45:58.263Z,87.90
2022-09-01T07:48:36.669Z,87.00
2022-09-01T07:51:36.723Z,86.40
2022-09-01T07:54:06.965Z,86.60
2022-09-01T07:56:39.828Z,87.40
2022-09-01T07:59:08.118Z,88.10
2022-09-01T08:01:36.559Z,89.30
2022-09-01T08:04:05.077Z,90.10
2022-09-01T08:06:40.965Z,90.30
2022-09-01T08:09:11.970Z,90.30
2022-09-01T08:12:02.609Z,90.10
2022-09-01T08:14:34.859Z,89.80
2022-09-01T08:17:34.314Z,90.20
2022-09-01T08:19:51.916Z,90.00
2022-09-01T08:22:23.305Z,89.50
2022-09-01T08:24:53.564Z,87.60
2022-09-01T08:27:21.875Z,88.60
2022-09-01T08:29:50.022Z,86.20
2022-09-01T08:32:18.233Z,85.30
2022-09-01T08:34:46.232Z,85.00
2022-09-01T08:37:14.245Z,84.60
2022-09-01T08:39:42.493Z,85.00
2022-09-01T08:42:19.005Z,84.30
2022-09-01T08:44:58.562Z,83.90
2022-09-01T08:47:35.610Z,83.90
2022-09-01T08:50:09.122Z,83.70
2022-09-01T08:52:41.290Z,83.20
2022-09-01T08:55:15.422Z,83.60
2022-09-01T08:57:47.801Z,83.60
2022-09-01T09:00:20.290Z,82.00
2022-09-01T09:03:06.152Z,81.40
2022-09-01T09:05:44.461Z,80.60
2022-09-01T09:08:46.350Z,79.10
2022-09-01T09:11:25.732Z,78.40
2022-09-01T09:14:04.943Z,77.60
2022-09-01T09:16:37.010Z,75.30
2022-09-01T09:19:10.603Z,75.60
2022-09-01T09:21:40.815Z,73.40
2022-09-01T09:24:17.035Z,74.80
2022-09-01T09:26:50.522Z,74.40
2022-09-01T09:29:23.297Z,72.50
2022-09-01T09:32:04.584Z,70.60
2022-09-01T09:34:35.891Z,67.50
2022-09-01T09:37:23.270Z,65.50
2022-09-01T09:40:10.645Z,65.70
2022-09-01T09:42:39.927Z,63.50
2022-09-01T09:45:22.314Z,60.10
2022-09-01T09:47:50.444Z,55.70
2022-09-01T09:50:23.971Z,55.40
2022-09-01T09:52:55.775Z,53.80
2022-09-01T09:55:29.020Z,55.40
2022-09-01T09:58:00.545Z,58.60
2022-09-01T10:00:34.276Z,61.80
2022-09-01T10:03:10.105Z,61.10
2022-09-01T10:05:43.030Z,56.10
2022-09-01T10:08:14.884Z,52.00
2022-09-01T10:10:45.764Z,43.10
2022-09-01T10:13:29.094Z,39.70
2022-09-01T10:16:03.711Z,35.80
2022-09-01T10:18:37.878Z,36.00
2022-09-01T10:21:10.991Z,40.80
2022-09-01T10:23:41.481Z,45.80
2022-09-01T10:26:15.062Z,50.30
2022-09-01T10:28:51.336Z,53.50
2022-09-01T10:31:22.660Z,55.10
2022-09-01T10:33:51.497Z,56.90
2022-09-01T10:36:24.442Z,57.20
2022-09-01T10:38:54.531Z,57.10
2022-09-01T10:41:59.953Z,56.60
2022-09-01T10:44:34.127Z,54.80
2022-09-01T10:47:06.463Z,53.70
2022-09-01T10:50:09.697Z,55.80
2022-09-01T10:53:11.479Z,55.80
2022-09-01T10:55:46.590Z,55.00
2022-09-01T11:01:40.515Z,55.20
2022-09-01T11:04:07.962Z,55.20
2022-09-01T11:07:50.689Z,55.20
2022-09-01T11:10:38.544Z,56.60
2022-09-01T11:13:32.848Z,58.20
2022-09-01T11:19:42.068Z,57.80
2022-09-01T11:22:26.441Z,58.60
2022-09-01T11:25:12.986Z,58.90
2022-09-01T11:28:12.261Z,58.20
2022-09-01T11:30:52.887Z,58.50
2022-09-01T11:33:33.692Z,57.60
2022-09-01T11:36:05.263Z,58.70
2022-09-01T11:38:43.506Z,59.30
2022-09-01T11:41:24.138Z,60.40
2022-09-01T11:43:55.509Z,60.20
2022-09-01T11:46:28.073Z,60.70
2022-09-01T11:48:59.513Z,60.60
2022-09-01T11:51:28.871Z,58.90
2022-09-01T11:54:01.716Z,57.80
2022-09-01T11:56:30.321Z,57.60
2022-09-01T11:58:58.597Z,57.30
2022-09-01T12:01:34.837Z,58.20
2022-09-01T12:04:19.404Z,58.30
2022-09-01T12:06:56.417Z,59.00
2022-09-01T12:09:32.364Z,58.70
2022-09-01T12:12:01.597Z,59.30
2022-09-01T12:14:43.417Z,58.90
2022-09-01T12:17:22.244Z,58.30
2022-09-01T12:19:50.447Z,56.80
2022-09-01T12:22:22.582Z,56.20
2022-09-01T12:24:53.281Z,55.90
2022-09-01T12:27:23.268Z,56.20
2022-09-01T12:29:52.482Z,56.20
2022-09-01T12:32:21.099Z,56.50
2022-09-01T12:35:02.209Z,55.70
2022-09-01T12:37:33.652Z,56.10
2022-09-01T12:40:01.761Z,56.70
2022-09-01T12:42:40.774Z,56.90
2022-09-01T12:45:12.979Z,57.10
2022-09-01T12:47:51.487Z,57.50
2022-09-01T12:50:45.828Z,57.00
2022-09-01T12:53:25.998Z,56.90
2022-09-01T12:56:07.833Z,57.00
2022-09-01T12:58:35.880Z,57.50
2022-09-01T13:01:08.779Z,57.50
2022-09-01T13:04:06.253Z,57.50
2022-09-01T13:06:35.091Z,56.30
2022-09-01T13:09:04.867Z,55.70
2022-09-01T13:14:21.896Z,55.00
2022-09-01T13:16:49.926Z,55.10
2022-09-01T13:19:26.594Z,55.00
2022-09-01T13:21:55.628Z,55.50
2022-09-01T13:24:29.405Z,55.10
2022-09-01T13:29:47.689Z,55.90
2022-09-01T13:32:19.041Z,56.60
2022-09-01T13:34:48.474Z,57.00
2022-09-01T13:37:18.790Z,57.30
2022-09-01T13:39:48.619Z,57.30
2022-09-01T13:42:16.905Z,56.70
2022-09-01T13:44:48.302Z,56.30
2022-09-01T13:47:33.493Z,56.50
2022-09-01T13:50:11.504Z,55.90
2022-09-01T13:52:41.172Z,55.40
2022-09-01T13:55:13.625Z,54.40
2022-09-01T13:57:41.789Z,54.20
2022-09-01T14:00:13.361Z,54.40
2022-09-01T14:02:43.032Z,53.50
2022-09-01T14:05:11.433Z,53.70
2022-09-01T14:07:39.505Z,53.70
2022-09-01T14:10:08.933Z,54.00
2022-09-01T14:12:39.607Z,53.20
2022-09-01T14:15:14.996Z,53.50
2022-09-01T14:17:44.031Z,53.20
2022-09-01T14:20:14.116Z,52.80
2022-09-01T14:22:42.157Z,52.30
2022-09-01T14:25:13.373Z,52.70
2022-09-01T14:27:44.695Z,52.80
2022-09-01T14:30:17.168Z,52.20
2022-09-01T14:32:45.184Z,52.60
2022-09-01T14:35:13.791Z,52.10
2022-09-01T14:37:42.239Z,52.30
2022-09-01T14:40:15.573Z,52.10
2022-09-01T14:42:49.236Z,51.70
2022-09-01T14:45:18.736Z,51.50
2022-09-01T14:47:47.213Z,52.10
2022-09-01T14:50:19.894Z,52.60
2022-09-01T14:52:52.855Z,53.90
2022-09-01T14:55:21.757Z,54.60
2022-09-01T14:57:51.848Z,54.80
2022-09-01T15:00:20.492Z,54.00
2022-09-01T15:02:48.660Z,53.80
2022-09-01T15:05:16.988Z,53.60
2022-09-01T15:07:46.102Z,54.20
2022-09-01T15:10:16.167Z,55.00
2022-09-01T15:12:55.242Z,55.40
2022-09-01T15:15:23.694Z,53.80
2022-09-01T15:17:51.718Z,54.20
2022-09-01T15:20:37.527Z,53.70
2022-09-01T15:23:05.829Z,54.10
2022-09-01T15:25:34.171Z,54.90
2022-09-01T15:28:03.993Z,55.10
2022-09-01T15:30:31.975Z,55.70
2022-09-01T15:33:00.547Z,56.10
2022-09-01T15:35:29.439Z,56.40
2022-09-01T15:37:58.093Z,57.10
2022-09-01T15:40:27.912Z,57.60
2022-09-01T15:42:56.665Z,57.80
2022-09-01T15:45:28.729Z,57.40
2022-09-01T15:47:56.835Z,57.10
2022-09-01T15:50:27.503Z,57.50
2022-09-01T15:52:57.731Z,57.40
2022-09-01T15:55:30.269Z,57.60
2022-09-01T15:57:59.030Z,58.00
2022-09-01T16:00:29.569Z,58.20
2022-09-01T16:03:01.896Z,58.50
2022-09-01T16:05:30.444Z,58.40
2022-09-01T16:07:59.046Z,58.40
2022-09-01T16:10:27.563Z,58.60
2022-09-01T16:12:55.998Z,58.60
2022-09-01T16:15:25.500Z,59.00
2022-09-01T16:18:16.875Z,59.30
2022-09-01T16:20:55.069Z,59.40
2022-09-01T16:23:25.949Z,59.40
2022-09-01T16:25:54.744Z,58.90
2022-09-01T16:28:27.472Z,58.90
2022-09-01T16:31:01.914Z,59.20
2022-09-01T16:33:33.085Z,59.50
2022-09-01T16:36:17.776Z,59.10
2022-09-01T16:38:51.269Z,59.60
2022-09-01T16:41:41.111Z,59.70
2022-09-01T16:44:22.771Z,59.50
2022-09-01T16:46:56.582Z,59.60
2022-09-01T16:49:34.025Z,59.80
2022-09-01T16:52:05.714Z,60.00
2022-09-01T16:54:50.467Z,59.60
2022-09-01T16:57:27.008Z,59.90
2022-09-01T16:59:57.208Z,59.60
2022-09-01T17:02:38.530Z,59.70
2022-09-01T17:05:17.933Z,60.10
2022-09-01T17:07:52.482Z,60.50
2022-09-01T17:10:33.431Z,61.10
2022-09-01T17:13:17.307Z,61.80
2022-09-01T17:15:50.747Z,62.50
2022-09-01T17:18:24.717Z,63.30
2022-09-01T17:21:02.087Z,64.20
2022-09-01T17:23:38.230Z,65.20
2022-09-01T17:26:14.672Z,66.80
2022-09-01T17:28:48.950Z,66.80
2022-09-01T17:31:24.291Z,67.50
2022-09-01T17:34:03.006Z,68.30
2022-09-01T17:36:46.807Z,68.80
2022-09-01T17:39:27.866Z,68.80
2022-09-01T17:41:57.928Z,68.90
2022-09-01T17:44:35.639Z,69.10
2022-09-01T17:47:12.703Z,69.30
2022-09-01T17:49:52.188Z,69.40
2022-09-01T17:52:34.190Z,68.90
2022-09-01T17:55:11.226Z,69.10
2022-09-01T17:57:42.671Z,69.50
2022-09-01T18:00:23.520Z,69.70
2022-09-01T18:03:09.377Z,69.90
2022-09-01T18:05:41.135Z,70.40
2022-09-01T18:08:24.834Z,70.70
2022-09-01T18:10:59.431Z,71.20
2022-09-01T18:13:52.348Z,71.30
2022-09-01T18:16:24.940Z,71.60
2022-09-01T18:18:53.867Z,71.60
2022-09-01T18:21:24.824Z,71.70
2022-09-01T18:24:00.161Z,71.80
2022-09-01T18:26:32.577Z,72.20
2022-09-01T18:29:02.174Z,72.40
2022-09-01T18:31:52.552Z,72.70
2022-09-01T18:34:29.589Z,73.00
2022-09-01T18:37:05.154Z,73.30
2022-09-01T18:39:50.425Z,74.30
2022-09-01T18:42:29.709Z,74.00
2022-09-01T18:45:06.137Z,74.40
2022-09-01T18:47:36.417Z,74.80
2022-09-01T18:50:14.632Z,74.80
2022-09-01T18:53:09.960Z,75.10
2022-09-01T18:55:49.098Z,75.30
2022-09-01T18:58:29.703Z,75.70
2022-09-01T19:01:03.786Z,76.30
2022-09-01T19:03:35.816Z,76.10
2022-09-01T19:06:25.198Z,76.10
2022-09-01T19:09:07.815Z,76.50
2022-09-01T19:11:49.010Z,76.90
2022-09-01T19:14:28.092Z,76.90
2022-09-01T19:17:17.047Z,77.30
2022-09-01T19:19:51.005Z,77.40
2022-09-01T19:22:23.544Z,77.80
2022-09-01T19:25:18.249Z,77.80
2022-09-01T19:27:59.256Z,78.80
2022-09-01T19:30:27.385Z,78.50
2022-09-01T19:32:56.922Z,78.70
2022-09-01T19:35:25.689Z,78.90
2022-09-01T19:37:53.740Z,79.60
2022-09-01T19:40:29.523Z,80.10
2022-09-01T19:43:06.325Z,80.60
2022-09-01T19:45:47.301Z,80.70
2022-09-01T19:48:19.904Z,80.80
2022-09-01T19:50:52.026Z,80.70
2022-09-01T19:53:33.880Z,80.80
2022-09-01T19:56:08.163Z,81.20
2022-09-01T19:58:47.310Z,81.40
2022-09-01T20:01:22.031Z,81.80
2022-09-01T20:03:53.943Z,81.80
2022-09-01T20:06:33.444Z,81.70
2022-09-01T20:09:08.379Z,82.10
2022-09-01T20:11:45.588Z,82.20
2022-09-01T20:14:31.173Z,82.70
2022-09-01T20:17:02.128Z,82.90
2022-09-01T20:19:39.073Z,82.80
2022-09-01T20:22:21.665Z,83.20
2022-09-01T20:24:49.824Z,83.50
2022-09-01T20:27:34.009Z,83.40
2022-09-01T20:30:06.190Z,83.70
2022-09-01T20:32:40.310Z,83.90
2022-09-01T20:35:14.191Z,84.00
2022-09-01T20:37:47.309Z,84.40
2022-09-01T20:40:20.933Z,85.30
2022-09-01T20:43:10.014Z,84.70
2022-09-01T20:45:40.516Z,84.90
2022-09-01T20:48:14.425Z,85.10
2022-09-01T20:50:51.790Z,85.50
2022-09-01T20:53:35.320Z,85.20
2022-09-01T20:56:08.985Z,85.70
2022-09-01T20:58:41.635Z,86.00
2022-09-01T21:01:19.479Z,86.00
2022-09-01T21:03:59.587Z,86.10
2022-09-01T21:06:46.019Z,86.20
2022-09-01T21:09:20.509Z,86.80
2022-09-01T21:11:55.823Z,87.40
2022-09-01T21:14:38.748Z,87.40
2022-09-01T21:17:15.828Z,87.70
2022-09-01T21:19:54.918Z,87.70
2022-09-01T21:22:23.235Z,88.30
2022-09-01T21:24:51.636Z,88.50
2022-09-01T21:27:23.378Z,88.70
2022-09-01T21:29:58.252Z,89.40
2022-09-01T21:32:30.047Z,89.60
2022-09-01T21:34:59.167Z,89.70
2022-09-01T21:37:28.733Z,90.00
2022-09-01T21:39:58.192Z,90.00
2022-09-01T21:42:29.173Z,90.10
2022-09-01T21:44:58.568Z,90.20
2022-09-01T21:47:29.443Z,90.40
2022-09-01T21:49:57.481Z,90.40
2022-09-01T21:52:25.643Z,90.70
2022-09-01T21:54:53.681Z,90.80
2022-09-01T21:57:23.087Z,91.10
2022-09-01T21:59:51.636Z,91.10
2022-09-01T22:02:20.585Z,91.30
2022-09-01T22:04:50.173Z,91.40
2022-09-01T22:07:21.171Z,91.60
2022-09-01T22:09:49.935Z,91.80
2022-09-01T22:12:17.956Z,91.90
2022-09-01T22:14:45.943Z,92.10
2022-09-01T22:17:13.937Z,92.40
2022-09-01T22:19:41.977Z,92.60
2022-09-01T22:22:14.940Z,92.90
2022-09-01T22:24:43.129Z,92.80
2022-09-01T22:27:11.128Z,93.10
2022-09-01T22:29:39.610Z,93.20
2022-09-01T22:32:07.788Z,93.30
2022-09-01T22:34:36.418Z,93.20
2022-09-01T22:37:04.863Z,93.50
2022-09-01T22:39:34.204Z,93.90
2022-09-01T22:42:03.619Z,94.20
2022-09-01T22:44:31.624Z,94.40
2022-09-01T22:46:59.652Z,94.50
2022-09-01T22:49:27.683Z,94.80
2022-09-01T22:51:55.729Z,94.80
2022-09-01T22:54:23.852Z,94.90
2022-09-01T22:56:53.998Z,95.00
2022-09-01T22:59:24.437Z,95.00
2022-09-01T23:01:53.088Z,95.10
2022-09-01T23:04:21.639Z,95.30
2022-09-01T23:06:52.767Z,95.70
2022-09-01T23:09:21.503Z,96.00
2022-09-01T23:11:50.472Z,96.20
2022-09-01T23:14:19.894Z,96.60
2022-09-01T23:16:51.329Z,97.00
2022-09-01T23:19:20.267Z,97.20
2022-09-01T23:21:48.754Z,97.30
2022-09-01T23:24:19.753Z,97.10
2022-09-01T23:26:48.336Z,97.10
2022-09-01T23:29:16.513Z,97.40
2022-09-01T23:31:45.972Z,97.70
2022-09-01T23:34:14.306Z,97.80
2022-09-01T23:36:42.734Z,97.70
2022-09-01T23:39:10.761Z,97.70
2022-09-01T23:41:39.467Z,97.80
2022-09-01T23:44:10.490Z,98.20
2022-09-01T23:46:41.349Z,98.50
2022-09-01T23:49:11.036Z,98.60
2022-09-01T23:51:39.922Z,98.70
2022-09-01T23:54:08.132Z,98.90
2022-09-01T23:56:37.726Z,99.20
2022-09-01T23:59:06.338Z,99.40
